sensor_id;sensor_type;location;lat;lon;timestamp;temperature;humidity
21592;DHT22;10958;50.892;3.992;2023-08-01T00:04:08;17.30;99.90
21592;DHT22;10958;50.892;3.992;2023-08-01T00:06:34;17.30;99.90
21592;DHT22;10958;50.892;3.992;2023-08-01T00:09:00;17.50;99.90
21592;DHT22;10958;50.892;3.992;2023-08-01T00:11:26;17.50;99.90
21592;DHT22;10958;50.892;3.992;2023-08-01T00:13:52;17.50;99.90
21592;DHT22;10958;50.892;3.992;2023-08-01T00:16:19;17.40;99.90
21592;DHT22;10958;50.892;3.992;2023-08-01T00:18:45;17.10;99.90
21592;DHT22;10958;50.892;3.992;2023-08-01T00:21:11;17.00;99.90
21592;DHT22;10958;50.892;3.992;2023-08-01T00:23:37;16.80;99.90
21592;DHT22;10958;50.892;3.992;2023-08-01T00:26:03;16.90;99.90
21592;DHT22;10958;50.892;3.992;2023-08-01T00:28:30;16.90;99.90
21592;DHT22;10958;50.892;3.992;2023-08-01T00:31:04;16.90;99.90
21592;DHT22;10958;50.892;3.992;2023-08-01T00:33:31;17.00;99.90
21592;DHT22;10958;50.892;3.992;2023-08-01T00:36:02;17.10;99.90
21592;DHT22;10958;50.892;3.992;2023-08-01T00:38:34;17.20;99.90
21592;DHT22;10958;50.892;3.992;2023-08-01T00:41:13;17.20;99.90
21592;DHT22;10958;50.892;3.992;2023-08-01T00:43:45;17.20;99.90
21592;DHT22;10958;50.892;3.992;2023-08-01T00:46:21;17.20;99.90
21592;DHT22;10958;50.892;3.992;2023-08-01T00:48:48;17.10;99.90
21592;DHT22;10958;50.892;3.992;2023-08-01T00:51:14;17.10;99.90
21592;DHT22;10958;50.892;3.992;2023-08-01T00:53:43;17.10;99.90
21592;DHT22;10958;50.892;3.992;2023-08-01T00:56:11;17.10;99.90
21592;DHT22;10958;50.892;3.992;2023-08-01T00:58:40;17.20;99.90
21592;DHT22;10958;50.892;3.992;2023-08-01T01:01:06;17.00;99.90
21592;DHT22;10958;50.892;3.992;2023-08-01T01:03:32;17.10;99.90
21592;DHT22;10958;50.892;3.992;2023-08-01T01:06:18;17.10;99.90
21592;DHT22;10958;50.892;3.992;2023-08-01T01:08:47;17.10;99.90
21592;DHT22;10958;50.892;3.992;2023-08-01T01:11:16;17.10;99.90
21592;DHT22;10958;50.892;3.992;2023-08-01T01:13:42;17.00;99.90
21592;DHT22;10958;50.892;3.992;2023-08-01T01:16:08;17.10;99.90
21592;DHT22;10958;50.892;3.992;2023-08-01T01:18:36;17.10;99.90
21592;DHT22;10958;50.892;3.992;2023-08-01T01:21:02;17.10;99.90
21592;DHT22;10958;50.892;3.992;2023-08-01T01:23:30;17.20;99.90
21592;DHT22;10958;50.892;3.992;2023-08-01T01:28:34;17.00;99.90
21592;DHT22;10958;50.892;3.992;2023-08-01T01:31:09;17.00;99.90
21592;DHT22;10958;50.892;3.992;2023-08-01T01:33:38;16.90;99.90
21592;DHT22;10958;50.892;3.992;2023-08-01T01:36:07;16.90;99.90
21592;DHT22;10958;50.892;3.992;2023-08-01T01:38:36;16.90;99.90
21592;DHT22;10958;50.892;3.992;2023-08-01T01:41:05;16.90;99.90
21592;DHT22;10958;50.892;3.992;2023-08-01T01:43:31;16.90;99.90
21592;DHT22;10958;50.892;3.992;2023-08-01T01:45:56;17.00;99.90
21592;DHT22;10958;50.892;3.992;2023-08-01T01:48:22;17.00;99.90
21592;DHT22;10958;50.892;3.992;2023-08-01T01:50:50;17.00;99.90
21592;DHT22;10958;50.892;3.992;2023-08-01T01:53:16;17.00;99.90
21592;DHT22;10958;50.892;3.992;2023-08-01T01:55:44;17.00;99.90
21592;DHT22;10958;50.892;3.992;2023-08-01T01:58:09;17.00;99.90
21592;DHT22;10958;50.892;3.992;2023-08-01T02:00:35;17.00;99.90
21592;DHT22;10958;50.892;3.992;2023-08-01T02:03:01;16.90;99.90
21592;DHT22;10958;50.892;3.992;2023-08-01T02:05:29;16.80;99.90
21592;DHT22;10958;50.892;3.992;2023-08-01T02:07:57;16.80;99.90
21592;DHT22;10958;50.892;3.992;2023-08-01T02:10:23;16.80;99.90
21592;DHT22;10958;50.892;3.992;2023-08-01T02:12:48;16.70;99.90
21592;DHT22;10958;50.892;3.992;2023-08-01T02:15:14;16.80;99.90
21592;DHT22;10958;50.892;3.992;2023-08-01T02:17:40;16.90;99.90
21592;DHT22;10958;50.892;3.992;2023-08-01T02:20:06;16.90;99.90
21592;DHT22;10958;50.892;3.992;2023-08-01T02:22:33;16.80;99.90
21592;DHT22;10958;50.892;3.992;2023-08-01T02:24:58;16.80;99.90
21592;DHT22;10958;50.892;3.992;2023-08-01T02:27:25;16.70;99.90
21592;DHT22;10958;50.892;3.992;2023-08-01T02:29:50;16.70;99.90
21592;DHT22;10958;50.892;3.992;2023-08-01T02:32:17;16.70;99.90
21592;DHT22;10958;50.892;3.992;2023-08-01T02:34:43;16.70;99.90
21592;DHT22;10958;50.892;3.992;2023-08-01T02:37:09;16.80;99.90
21592;DHT22;10958;50.892;3.992;2023-08-01T02:39:35;16.70;99.90
21592;DHT22;10958;50.892;3.992;2023-08-01T02:42:03;16.70;99.90
21592;DHT22;10958;50.892;3.992;2023-08-01T02:44:29;16.70;99.90
21592;DHT22;10958;50.892;3.992;2023-08-01T02:46:55;16.70;99.90
21592;DHT22;10958;50.892;3.992;2023-08-01T02:49:20;16.70;99.90
21592;DHT22;10958;50.892;3.992;2023-08-01T02:51:46;16.60;99.90
21592;DHT22;10958;50.892;3.992;2023-08-01T02:54:12;16.50;99.90
21592;DHT22;10958;50.892;3.992;2023-08-01T02:56:40;16.60;99.90
21592;DHT22;10958;50.892;3.992;2023-08-01T02:59:11;16.70;99.90
21592;DHT22;10958;50.892;3.992;2023-08-01T03:01:38;16.80;99.90
21592;DHT22;10958;50.892;3.992;2023-08-01T03:04:06;16.80;99.90
21592;DHT22;10958;50.892;3.992;2023-08-01T03:06:32;16.80;99.90
21592;DHT22;10958;50.892;3.992;2023-08-01T03:08:59;16.90;99.90
21592;DHT22;10958;50.892;3.992;2023-08-01T03:11:26;16.90;99.90
21592;DHT22;10958;50.892;3.992;2023-08-01T03:13:52;16.90;99.90
21592;DHT22;10958;50.892;3.992;2023-08-01T03:16:18;16.80;99.90
21592;DHT22;10958;50.892;3.992;2023-08-01T03:18:43;16.80;99.90
21592;DHT22;10958;50.892;3.992;2023-08-01T03:21:10;16.80;99.90
21592;DHT22;10958;50.892;3.992;2023-08-01T03:23:36;16.70;99.90
21592;DHT22;10958;50.892;3.992;2023-08-01T03:26:02;16.60;99.90
21592;DHT22;10958;50.892;3.992;2023-08-01T03:28:30;16.60;99.90
21592;DHT22;10958;50.892;3.992;2023-08-01T03:33:39;16.70;99.90
21592;DHT22;10958;50.892;3.992;2023-08-01T03:36:11;16.80;99.90
21592;DHT22;10958;50.892;3.992;2023-08-01T03:38:38;16.70;99.90
21592;DHT22;10958;50.892;3.992;2023-08-01T03:41:06;16.70;99.90
21592;DHT22;10958;50.892;3.992;2023-08-01T03:43:32;16.60;99.90
21592;DHT22;10958;50.892;3.992;2023-08-01T03:45:59;16.70;99.90
21592;DHT22;10958;50.892;3.992;2023-08-01T03:48:27;16.60;99.90
21592;DHT22;10958;50.892;3.992;2023-08-01T03:50:53;16.60;99.90
21592;DHT22;10958;50.892;3.992;2023-08-01T03:53:18;16.50;99.90
21592;DHT22;10958;50.892;3.992;2023-08-01T03:55:44;16.50;99.90
21592;DHT22;10958;50.892;3.992;2023-08-01T03:58:10;16.50;99.90
21592;DHT22;10958;50.892;3.992;2023-08-01T04:00:36;16.50;99.90
21592;DHT22;10958;50.892;3.992;2023-08-01T04:03:04;16.50;99.90
21592;DHT22;10958;50.892;3.992;2023-08-01T04:05:30;16.50;99.90
21592;DHT22;10958;50.892;3.992;2023-08-01T04:07:57;16.40;99.90
21592;DHT22;10958;50.892;3.992;2023-08-01T04:10:23;16.40;99.90
21592;DHT22;10958;50.892;3.992;2023-08-01T04:12:49;16.30;99.90
21592;DHT22;10958;50.892;3.992;2023-08-01T04:15:18;16.40;99.90
21592;DHT22;10958;50.892;3.992;2023-08-01T04:17:43;16.40;99.90
21592;DHT22;10958;50.892;3.992;2023-08-01T04:20:09;16.40;99.90
21592;DHT22;10958;50.892;3.992;2023-08-01T04:22:38;16.40;99.90
21592;DHT22;10958;50.892;3.992;2023-08-01T04:25:16;16.40;99.90
21592;DHT22;10958;50.892;3.992;2023-08-01T04:27:41;16.40;99.90
21592;DHT22;10958;50.892;3.992;2023-08-01T04:30:07;16.40;99.90
21592;DHT22;10958;50.892;3.992;2023-08-01T04:32:36;16.40;99.90
21592;DHT22;10958;50.892;3.992;2023-08-01T04:35:02;16.50;99.90
21592;DHT22;10958;50.892;3.992;2023-08-01T04:37:28;16.50;99.90
21592;DHT22;10958;50.892;3.992;2023-08-01T04:39:53;16.50;99.90
21592;DHT22;10958;50.892;3.992;2023-08-01T04:42:20;16.60;99.90
21592;DHT22;10958;50.892;3.992;2023-08-01T04:44:48;16.60;99.90
21592;DHT22;10958;50.892;3.992;2023-08-01T04:47:14;16.60;99.90
21592;DHT22;10958;50.892;3.992;2023-08-01T04:49:41;16.60;99.90
21592;DHT22;10958;50.892;3.992;2023-08-01T04:52:07;16.70;99.90
21592;DHT22;10958;50.892;3.992;2023-08-01T04:54:34;16.60;99.90
21592;DHT22;10958;50.892;3.992;2023-08-01T04:57:01;16.70;99.90
21592;DHT22;10958;50.892;3.992;2023-08-01T04:59:27;16.70;99.90
21592;DHT22;10958;50.892;3.992;2023-08-01T05:01:53;16.80;99.90
21592;DHT22;10958;50.892;3.992;2023-08-01T05:04:19;17.00;99.90
21592;DHT22;10958;50.892;3.992;2023-08-01T05:06:45;17.20;99.90
21592;DHT22;10958;50.892;3.992;2023-08-01T05:09:11;17.10;99.90
21592;DHT22;10958;50.892;3.992;2023-08-01T05:11:38;17.10;99.90
21592;DHT22;10958;50.892;3.992;2023-08-01T05:14:06;17.20;99.90
21592;DHT22;10958;50.892;3.992;2023-08-01T05:16:32;17.30;99.90
21592;DHT22;10958;50.892;3.992;2023-08-01T05:18:58;17.50;99.90
21592;DHT22;10958;50.892;3.992;2023-08-01T05:21:26;17.40;99.90
21592;DHT22;10958;50.892;3.992;2023-08-01T05:23:52;17.30;99.90
21592;DHT22;10958;50.892;3.992;2023-08-01T05:26:20;17.30;99.90
21592;DHT22;10958;50.892;3.992;2023-08-01T05:28:46;17.30;99.90
21592;DHT22;10958;50.892;3.992;2023-08-01T05:31:12;17.30;99.90
21592;DHT22;10958;50.892;3.992;2023-08-01T05:33:38;17.40;99.90
21592;DHT22;10958;50.892;3.992;2023-08-01T05:36:04;17.40;99.90
21592;DHT22;10958;50.892;3.992;2023-08-01T05:38:33;17.30;99.90
21592;DHT22;10958;50.892;3.992;2023-08-01T05:40:59;17.30;99.90
21592;DHT22;10958;50.892;3.992;2023-08-01T05:43:25;17.20;99.90
21592;DHT22;10958;50.892;3.992;2023-08-01T05:45:50;17.20;99.90
21592;DHT22;10958;50.892;3.992;2023-08-01T05:48:16;17.20;99.90
21592;DHT22;10958;50.892;3.992;2023-08-01T05:50:42;17.20;99.90
21592;DHT22;10958;50.892;3.992;2023-08-01T05:53:08;17.30;99.90
21592;DHT22;10958;50.892;3.992;2023-08-01T05:55:36;17.30;99.90
21592;DHT22;10958;50.892;3.992;2023-08-01T05:58:01;17.20;99.90
21592;DHT22;10958;50.892;3.992;2023-08-01T06:00:32;17.30;99.90
21592;DHT22;10958;50.892;3.992;2023-08-01T06:02:58;17.30;99.90
21592;DHT22;10958;50.892;3.992;2023-08-01T06:05:24;17.30;99.90
21592;DHT22;10958;50.892;3.992;2023-08-01T06:07:49;17.20;99.90
21592;DHT22;10958;50.892;3.992;2023-08-01T06:10:15;17.20;99.90
21592;DHT22;10958;50.892;3.992;2023-08-01T06:12:43;17.10;99.90
21592;DHT22;10958;50.892;3.992;2023-08-01T06:15:09;17.00;99.90
21592;DHT22;10958;50.892;3.992;2023-08-01T06:17:34;17.00;99.90
21592;DHT22;10958;50.892;3.992;2023-08-01T06:20:00;17.20;99.90
21592;DHT22;10958;50.892;3.992;2023-08-01T06:22:29;17.10;99.90
21592;DHT22;10958;50.892;3.992;2023-08-01T06:24:55;17.20;99.90
21592;DHT22;10958;50.892;3.992;2023-08-01T06:27:21;17.20;99.90
21592;DHT22;10958;50.892;3.992;2023-08-01T06:29:47;17.40;99.90
21592;DHT22;10958;50.892;3.992;2023-08-01T06:32:13;17.50;99.90
21592;DHT22;10958;50.892;3.992;2023-08-01T06:34:39;17.60;99.90
21592;DHT22;10958;50.892;3.992;2023-08-01T06:37:05;17.60;99.90
21592;DHT22;10958;50.892;3.992;2023-08-01T06:39:31;17.90;99.90
21592;DHT22;10958;50.892;3.992;2023-08-01T06:41:57;18.10;99.90
21592;DHT22;10958;50.892;3.992;2023-08-01T06:44:26;18.20;99.90
21592;DHT22;10958;50.892;3.992;2023-08-01T06:46:52;18.20;99.90
21592;DHT22;10958;50.892;3.992;2023-08-01T06:49:17;18.30;99.90
21592;DHT22;10958;50.892;3.992;2023-08-01T06:51:44;18.40;99.90
21592;DHT22;10958;50.892;3.992;2023-08-01T06:54:09;18.40;99.90
21592;DHT22;10958;50.892;3.992;2023-08-01T06:56:35;18.70;99.90
21592;DHT22;10958;50.892;3.992;2023-08-01T06:59:01;18.80;99.90
21592;DHT22;10958;50.892;3.992;2023-08-01T07:01:32;18.90;99.90
21592;DHT22;10958;50.892;3.992;2023-08-01T07:04:02;19.10;99.90
21592;DHT22;10958;50.892;3.992;2023-08-01T07:06:28;19.10;99.90
21592;DHT22;10958;50.892;3.992;2023-08-01T07:08:54;19.00;99.90
21592;DHT22;10958;50.892;3.992;2023-08-01T07:11:22;19.00;99.90
21592;DHT22;10958;50.892;3.992;2023-08-01T07:13:48;19.00;99.90
21592;DHT22;10958;50.892;3.992;2023-08-01T07:16:13;18.90;99.90
21592;DHT22;10958;50.892;3.992;2023-08-01T07:18:40;18.90;99.90
21592;DHT22;10958;50.892;3.992;2023-08-01T07:21:05;18.80;99.90
21592;DHT22;10958;50.892;3.992;2023-08-01T07:23:34;19.10;99.90
21592;DHT22;10958;50.892;3.992;2023-08-01T07:26:01;19.60;99.90
21592;DHT22;10958;50.892;3.992;2023-08-01T07:28:26;19.50;99.90
21592;DHT22;10958;50.892;3.992;2023-08-01T07:31:03;19.20;99.90
21592;DHT22;10958;50.892;3.992;2023-08-01T07:33:30;18.90;99.90
21592;DHT22;10958;50.892;3.992;2023-08-01T07:35:58;18.80;99.90
21592;DHT22;10958;50.892;3.992;2023-08-01T07:38:24;18.80;99.90
21592;DHT22;10958;50.892;3.992;2023-08-01T07:40:55;18.90;99.90
21592;DHT22;10958;50.892;3.992;2023-08-01T07:43:21;18.90;99.90
21592;DHT22;10958;50.892;3.992;2023-08-01T07:45:47;19.20;99.90
21592;DHT22;10958;50.892;3.992;2023-08-01T07:48:15;19.70;99.90
21592;DHT22;10958;50.892;3.992;2023-08-01T07:50:44;20.40;99.90
21592;DHT22;10958;50.892;3.992;2023-08-01T07:53:09;21.50;99.90
21592;DHT22;10958;50.892;3.992;2023-08-01T07:55:35;22.30;99.90
21592;DHT22;10958;50.892;3.992;2023-08-01T07:58:01;22.30;99.90
21592;DHT22;10958;50.892;3.992;2023-08-01T08:00:27;21.90;99.90
21592;DHT22;10958;50.892;3.992;2023-08-01T08:02:53;21.30;99.90
21592;DHT22;10958;50.892;3.992;2023-08-01T08:05:19;21.40;99.90
21592;DHT22;10958;50.892;3.992;2023-08-01T08:07:44;22.30;99.90
21592;DHT22;10958;50.892;3.992;2023-08-01T08:10:13;22.40;99.90
21592;DHT22;10958;50.892;3.992;2023-08-01T08:12:42;22.20;99.90
21592;DHT22;10958;50.892;3.992;2023-08-01T08:15:08;22.20;99.90
21592;DHT22;10958;50.892;3.992;2023-08-01T08:17:34;22.40;99.90
21592;DHT22;10958;50.892;3.992;2023-08-01T08:19:59;22.70;99.90
21592;DHT22;10958;50.892;3.992;2023-08-01T08:22:28;22.30;99.90
21592;DHT22;10958;50.892;3.992;2023-08-01T08:24:59;22.70;99.90
21592;DHT22;10958;50.892;3.992;2023-08-01T08:27:25;23.30;99.90
21592;DHT22;10958;50.892;3.992;2023-08-01T08:29:57;23.50;99.90
21592;DHT22;10958;50.892;3.992;2023-08-01T08:32:26;22.90;99.90
21592;DHT22;10958;50.892;3.992;2023-08-01T08:35:01;23.80;99.90
21592;DHT22;10958;50.892;3.992;2023-08-01T08:37:27;24.40;99.90
21592;DHT22;10958;50.892;3.992;2023-08-01T08:39:52;24.50;99.90
21592;DHT22;10958;50.892;3.992;2023-08-01T08:42:19;24.80;99.90
21592;DHT22;10958;50.892;3.992;2023-08-01T08:45:17;24.40;99.90
21592;DHT22;10958;50.892;3.992;2023-08-01T08:47:53;24.30;99.90
21592;DHT22;10958;50.892;3.992;2023-08-01T08:53:12;23.80;99.90
21592;DHT22;10958;50.892;3.992;2023-08-01T08:55:40;23.50;99.90
21592;DHT22;10958;50.892;3.992;2023-08-01T08:58:06;23.10;99.90
21592;DHT22;10958;50.892;3.992;2023-08-01T09:00:32;22.80;99.90
21592;DHT22;10958;50.892;3.992;2023-08-01T09:02:58;23.30;99.90
21592;DHT22;10958;50.892;3.992;2023-08-01T09:05:31;23.70;99.90
21592;DHT22;10958;50.892;3.992;2023-08-01T09:08:02;24.10;99.90
21592;DHT22;10958;50.892;3.992;2023-08-01T09:10:31;24.90;99.90
21592;DHT22;10958;50.892;3.992;2023-08-01T09:12:57;24.90;99.90
21592;DHT22;10958;50.892;3.992;2023-08-01T09:15:24;24.30;99.90
21592;DHT22;10958;50.892;3.992;2023-08-01T09:17:54;23.30;99.90
21592;DHT22;10958;50.892;3.992;2023-08-01T09:20:29;23.30;99.90
21592;DHT22;10958;50.892;3.992;2023-08-01T09:22:55;23.10;99.90
21592;DHT22;10958;50.892;3.992;2023-08-01T09:25:31;22.70;99.90
21592;DHT22;10958;50.892;3.992;2023-08-01T09:27:58;23.10;99.90
21592;DHT22;10958;50.892;3.992;2023-08-01T09:30:24;23.00;99.90
21592;DHT22;10958;50.892;3.992;2023-08-01T09:32:54;22.70;99.90
21592;DHT22;10958;50.892;3.992;2023-08-01T09:35:20;23.60;99.90
21592;DHT22;10958;50.892;3.992;2023-08-01T09:37:49;24.70;99.90
21592;DHT22;10958;50.892;3.992;2023-08-01T09:40:15;25.20;99.90
21592;DHT22;10958;50.892;3.992;2023-08-01T09:42:44;24.80;99.90
21592;DHT22;10958;50.892;3.992;2023-08-01T09:45:22;24.50;99.90
21592;DHT22;10958;50.892;3.992;2023-08-01T09:47:55;24.50;99.90
21592;DHT22;10958;50.892;3.992;2023-08-01T09:50:32;24.40;99.90
21592;DHT22;10958;50.892;3.992;2023-08-01T09:56:29;23.80;99.90
21592;DHT22;10958;50.892;3.992;2023-08-01T09:58:55;23.70;99.90
21592;DHT22;10958;50.892;3.992;2023-08-01T10:20:55;23.00;99.90
21592;DHT22;10958;50.892;3.992;2023-08-01T10:24:11;22.60;99.90
21592;DHT22;10958;50.892;3.992;2023-08-01T10:27:44;22.70;99.90
21592;DHT22;10958;50.892;3.992;2023-08-01T10:30:25;22.70;99.90
21592;DHT22;10958;50.892;3.992;2023-08-01T10:33:15;23.10;99.90
21592;DHT22;10958;50.892;3.992;2023-08-01T10:38:46;22.90;99.90
21592;DHT22;10958;50.892;3.992;2023-08-01T10:41:39;23.00;99.90
21592;DHT22;10958;50.892;3.992;2023-08-01T10:44:44;22.70;99.90
21592;DHT22;10958;50.892;3.992;2023-08-01T10:47:28;22.60;99.90
21592;DHT22;10958;50.892;3.992;2023-08-01T10:49:57;22.90;99.90
21592;DHT22;10958;50.892;3.992;2023-08-01T10:52:43;22.90;99.90
21592;DHT22;10958;50.892;3.992;2023-08-01T10:55:50;23.00;99.90
21592;DHT22;10958;50.892;3.992;2023-08-01T10:58:19;23.20;99.90
21592;DHT22;10958;50.892;3.992;2023-08-01T11:00:59;22.80;99.90
21592;DHT22;10958;50.892;3.992;2023-08-01T11:03:38;22.50;99.90
21592;DHT22;10958;50.892;3.992;2023-08-01T11:06:07;22.10;99.90
21592;DHT22;10958;50.892;3.992;2023-08-01T11:08:40;22.50;99.90
21592;DHT22;10958;50.892;3.992;2023-08-01T11:11:13;22.80;99.90
21592;DHT22;10958;50.892;3.992;2023-08-01T11:23:30;22.50;99.90
21592;DHT22;10958;50.892;3.992;2023-08-01T11:26:16;22.10;99.90
21592;DHT22;10958;50.892;3.992;2023-08-01T11:29:03;22.30;99.90
21592;DHT22;10958;50.892;3.992;2023-08-01T11:34:49;22.00;99.90
21592;DHT22;10958;50.892;3.992;2023-08-01T11:40:42;22.90;99.90
21592;DHT22;10958;50.892;3.992;2023-08-01T11:43:29;23.20;99.90
21592;DHT22;10958;50.892;3.992;2023-08-01T11:46:36;23.00;99.90
21592;DHT22;10958;50.892;3.992;2023-08-01T11:49:20;23.20;99.90
21592;DHT22;10958;50.892;3.992;2023-08-01T11:52:07;22.80;99.90
21592;DHT22;10958;50.892;3.992;2023-08-01T11:55:02;22.40;99.90
21592;DHT22;10958;50.892;3.992;2023-08-01T11:58:04;21.70;99.90
21592;DHT22;10958;50.892;3.992;2023-08-01T12:03:55;21.50;99.90
21592;DHT22;10958;50.892;3.992;2023-08-01T12:09:24;20.90;99.90
21592;DHT22;10958;50.892;3.992;2023-08-01T12:11:58;20.80;99.90
21592;DHT22;10958;50.892;3.992;2023-08-01T12:15:21;20.80;99.90
21592;DHT22;10958;50.892;3.992;2023-08-01T12:18:01;20.60;99.90
21592;DHT22;10958;50.892;3.992;2023-08-01T12:21:16;20.60;99.90
21592;DHT22;10958;50.892;3.992;2023-08-01T12:24:09;20.80;99.90
21592;DHT22;10958;50.892;3.992;2023-08-01T12:26:49;20.70;99.90
21592;DHT22;10958;50.892;3.992;2023-08-01T12:29:35;20.70;99.90
21592;DHT22;10958;50.892;3.992;2023-08-01T12:35:09;21.20;99.90
21592;DHT22;10958;50.892;3.992;2023-08-01T12:37:38;21.60;99.90
21592;DHT22;10958;50.892;3.992;2023-08-01T12:40:23;21.80;99.90
21592;DHT22;10958;50.892;3.992;2023-08-01T12:42:58;21.90;99.90
21592;DHT22;10958;50.892;3.992;2023-08-01T12:45:27;22.20;99.90
21592;DHT22;10958;50.892;3.992;2023-08-01T12:47:56;22.50;99.90
21592;DHT22;10958;50.892;3.992;2023-08-01T12:50:22;22.50;99.90
21592;DHT22;10958;50.892;3.992;2023-08-01T12:52:55;22.50;99.90
21592;DHT22;10958;50.892;3.992;2023-08-01T12:58:36;22.90;99.90
21592;DHT22;10958;50.892;3.992;2023-08-01T13:01:58;23.20;99.90
21592;DHT22;10958;50.892;3.992;2023-08-01T13:04:59;23.60;99.90
21592;DHT22;10958;50.892;3.992;2023-08-01T13:08:06;24.20;99.90
21592;DHT22;10958;50.892;3.992;2023-08-01T13:10:41;23.70;99.90
21592;DHT22;10958;50.892;3.992;2023-08-01T13:13:16;23.30;99.90
21592;DHT22;10958;50.892;3.992;2023-08-01T13:15:42;23.10;99.90
21592;DHT22;10958;50.892;3.992;2023-08-01T13:21:01;22.60;99.90
21592;DHT22;10958;50.892;3.992;2023-08-01T13:23:43;23.10;99.90
21592;DHT22;10958;50.892;3.992;2023-08-01T13:26:20;23.30;99.90
21592;DHT22;10958;50.892;3.992;2023-08-01T13:28:51;23.50;99.90
21592;DHT22;10958;50.892;3.992;2023-08-01T13:31:17;23.30;99.90
21592;DHT22;10958;50.892;3.992;2023-08-01T13:33:44;23.00;99.90
21592;DHT22;10958;50.892;3.992;2023-08-01T13:36:10;22.70;99.90
21592;DHT22;10958;50.892;3.992;2023-08-01T13:38:38;22.80;99.90
21592;DHT22;10958;50.892;3.992;2023-08-01T13:41:04;22.70;99.90
21592;DHT22;10958;50.892;3.992;2023-08-01T13:43:29;22.50;99.90
21592;DHT22;10958;50.892;3.992;2023-08-01T13:45:55;22.40;99.90
21592;DHT22;10958;50.892;3.992;2023-08-01T13:48:21;21.90;99.90
21592;DHT22;10958;50.892;3.992;2023-08-01T13:50:47;21.60;99.90
21592;DHT22;10958;50.892;3.992;2023-08-01T13:53:15;21.20;99.90
21592;DHT22;10958;50.892;3.992;2023-08-01T13:55:41;21.00;99.90
21592;DHT22;10958;50.892;3.992;2023-08-01T13:58:07;21.00;99.90
21592;DHT22;10958;50.892;3.992;2023-08-01T14:00:35;20.60;99.90
21592;DHT22;10958;50.892;3.992;2023-08-01T14:03:01;20.80;99.90
21592;DHT22;10958;50.892;3.992;2023-08-01T14:05:27;20.90;99.90
21592;DHT22;10958;50.892;3.992;2023-08-01T14:07:53;21.00;99.90
21592;DHT22;10958;50.892;3.992;2023-08-01T14:10:19;21.10;99.90
21592;DHT22;10958;50.892;3.992;2023-08-01T14:12:46;20.90;99.90
21592;DHT22;10958;50.892;3.992;2023-08-01T14:15:11;21.30;99.90
21592;DHT22;10958;50.892;3.992;2023-08-01T14:17:38;21.60;99.90
21592;DHT22;10958;50.892;3.992;2023-08-01T14:20:04;21.70;99.90
21592;DHT22;10958;50.892;3.992;2023-08-01T14:22:31;21.90;99.90
21592;DHT22;10958;50.892;3.992;2023-08-01T14:24:57;22.20;99.90
21592;DHT22;10958;50.892;3.992;2023-08-01T14:27:22;22.40;99.90
21592;DHT22;10958;50.892;3.992;2023-08-01T14:29:48;22.00;99.90
21592;DHT22;10958;50.892;3.992;2023-08-01T14:32:20;21.70;99.90
21592;DHT22;10958;50.892;3.992;2023-08-01T14:37:43;21.00;99.90
21592;DHT22;10958;50.892;3.992;2023-08-01T14:40:36;21.00;99.90
21592;DHT22;10958;50.892;3.992;2023-08-01T14:43:18;20.70;99.90
21592;DHT22;10958;50.892;3.992;2023-08-01T14:46:06;20.20;99.90
21592;DHT22;10958;50.892;3.992;2023-08-01T14:48:32;20.30;99.90
21592;DHT22;10958;50.892;3.992;2023-08-01T14:50:57;20.40;99.90
21592;DHT22;10958;50.892;3.992;2023-08-01T14:53:25;20.50;99.90
21592;DHT22;10958;50.892;3.992;2023-08-01T14:59:03;20.30;99.90
21592;DHT22;10958;50.892;3.992;2023-08-01T15:02:01;20.00;99.90
21592;DHT22;10958;50.892;3.992;2023-08-01T15:05:03;19.60;99.90
21592;DHT22;10958;50.892;3.992;2023-08-01T15:07:38;19.70;99.90
21592;DHT22;10958;50.892;3.992;2023-08-01T15:13:27;19.80;99.90
21592;DHT22;10958;50.892;3.992;2023-08-01T15:16:19;20.10;99.90
21592;DHT22;10958;50.892;3.992;2023-08-01T15:18:47;20.20;99.90
21592;DHT22;10958;50.892;3.992;2023-08-01T15:21:13;20.30;99.90
21592;DHT22;10958;50.892;3.992;2023-08-01T15:23:39;20.30;99.90
21592;DHT22;10958;50.892;3.992;2023-08-01T15:26:15;20.40;99.90
21592;DHT22;10958;50.892;3.992;2023-08-01T15:28:54;20.30;99.90
21592;DHT22;10958;50.892;3.992;2023-08-01T15:32:02;20.40;99.90
21592;DHT22;10958;50.892;3.992;2023-08-01T15:34:54;20.80;99.90
21592;DHT22;10958;50.892;3.992;2023-08-01T15:37:24;21.00;99.90
21592;DHT22;10958;50.892;3.992;2023-08-01T15:40:13;21.20;99.90
21592;DHT22;10958;50.892;3.992;2023-08-01T15:42:42;21.20;99.90
21592;DHT22;10958;50.892;3.992;2023-08-01T15:45:10;21.30;99.90
21592;DHT22;10958;50.892;3.992;2023-08-01T15:51:25;21.30;99.90
21592;DHT22;10958;50.892;3.992;2023-08-01T15:54:02;21.60;99.90
21592;DHT22;10958;50.892;3.992;2023-08-01T15:56:38;22.00;99.90
21592;DHT22;10958;50.892;3.992;2023-08-01T16:02:03;21.50;99.90
21592;DHT22;10958;50.892;3.992;2023-08-01T16:04:56;21.30;99.90
21592;DHT22;10958;50.892;3.992;2023-08-01T16:07:24;21.00;99.90
21592;DHT22;10958;50.892;3.992;2023-08-01T16:10:02;20.70;99.90
21592;DHT22;10958;50.892;3.992;2023-08-01T16:12:38;20.80;99.90
21592;DHT22;10958;50.892;3.992;2023-08-01T16:15:12;20.80;99.90
21592;DHT22;10958;50.892;3.992;2023-08-01T16:17:40;20.70;99.90
21592;DHT22;10958;50.892;3.992;2023-08-01T16:20:20;20.60;99.90
21592;DHT22;10958;50.892;3.992;2023-08-01T16:22:52;20.60;99.90
21592;DHT22;10958;50.892;3.992;2023-08-01T16:25:18;20.60;99.90
21592;DHT22;10958;50.892;3.992;2023-08-01T16:28:07;20.80;99.90
21592;DHT22;10958;50.892;3.992;2023-08-01T16:30:52;20.90;99.90
21592;DHT22;10958;50.892;3.992;2023-08-01T16:33:45;21.00;99.90
21592;DHT22;10958;50.892;3.992;2023-08-01T16:36:11;21.10;99.90
21592;DHT22;10958;50.892;3.992;2023-08-01T16:38:39;21.00;99.90
21592;DHT22;10958;50.892;3.992;2023-08-01T16:41:08;21.30;99.90
21592;DHT22;10958;50.892;3.992;2023-08-01T16:43:43;21.50;99.90
21592;DHT22;10958;50.892;3.992;2023-08-01T16:46:26;21.60;99.90
21592;DHT22;10958;50.892;3.992;2023-08-01T16:49:01;21.30;99.90
21592;DHT22;10958;50.892;3.992;2023-08-01T16:51:40;21.20;99.90
21592;DHT22;10958;50.892;3.992;2023-08-01T16:54:28;21.10;99.90
21592;DHT22;10958;50.892;3.992;2023-08-01T16:56:57;21.10;99.90
21592;DHT22;10958;50.892;3.992;2023-08-01T16:59:26;21.10;99.90
21592;DHT22;10958;50.892;3.992;2023-08-01T17:01:54;21.10;99.90
21592;DHT22;10958;50.892;3.992;2023-08-01T17:04:32;21.10;99.90
21592;DHT22;10958;50.892;3.992;2023-08-01T17:07:15;21.30;99.90
21592;DHT22;10958;50.892;3.992;2023-08-01T17:10:07;21.40;99.90
21592;DHT22;10958;50.892;3.992;2023-08-01T17:15:50;21.20;99.90
21592;DHT22;10958;50.892;3.992;2023-08-01T17:18:18;21.10;99.90
21592;DHT22;10958;50.892;3.992;2023-08-01T17:20:47;21.20;99.90
21592;DHT22;10958;50.892;3.992;2023-08-01T17:23:29;21.40;99.90